sensor_id;sensor_type;location;lat;lon;timestamp;P1;durP1;ratioP1;P2;durP2;ratioP2
20034;SDS011;10178;48.034;9.800;2022-07-03T00:01:20;1.30;;;1.20;;
20034;SDS011;10178;48.034;9.800;2022-07-03T00:03:46;1.35;;;1.00;;
20034;SDS011;10178;48.034;9.800;2022-07-03T00:06:12;1.98;;;1.20;;
20034;SDS011;10178;48.034;9.800;2022-07-03T00:08:38;1.35;;;0.90;;
20034;SDS011;10178;48.034;9.800;2022-07-03T00:11:04;2.38;;;1.38;;
20034;SDS011;10178;48.034;9.800;2022-07-03T00:13:30;1.48;;;1.20;;
20034;SDS011;10178;48.034;9.800;2022-07-03T00:15:56;0.90;;;0.90;;
20034;SDS011;10178;48.034;9.800;2022-07-03T00:18:22;1.17;;;1.13;;
20034;SDS011;10178;48.034;9.800;2022-07-03T00:20:48;3.65;;;0.90;;
20034;SDS011;10178;48.034;9.800;2022-07-03T00:23:18;2.78;;;1.33;;
20034;SDS011;10178;48.034;9.800;2022-07-03T00:25:47;1.42;;;1.10;;
20034;SDS011;10178;48.034;9.800;2022-07-03T00:28:15;1.45;;;1.25;;
20034;SDS011;10178;48.034;9.800;2022-07-03T00:30:45;1.00;;;1.00;;
20034;SDS011;10178;48.034;9.800;2022-07-03T00:33:13;1.30;;;1.20;;
20034;SDS011;10178;48.034;9.800;2022-07-03T00:35:40;0.88;;;0.88;;
20034;SDS011;10178;48.034;9.800;2022-07-03T00:38:07;2.50;;;1.20;;
20034;SDS011;10178;48.034;9.800;2022-07-03T00:40:35;1.00;;;1.00;;
20034;SDS011;10178;48.034;9.800;2022-07-03T00:43:01;1.40;;;1.00;;
20034;SDS011;10178;48.034;9.800;2022-07-03T00:45:28;1.20;;;1.10;;
20034;SDS011;10178;48.034;9.800;2022-07-03T00:47:59;1.13;;;1.02;;
20034;SDS011;10178;48.034;9.800;2022-07-03T00:50:26;1.48;;;1.00;;
20034;SDS011;10178;48.034;9.800;2022-07-03T00:52:58;1.48;;;1.00;;
20034;SDS011;10178;48.034;9.800;2022-07-03T00:55:27;1.08;;;0.80;;
20034;SDS011;10178;48.034;9.800;2022-07-03T00:57:54;1.55;;;1.20;;
20034;SDS011;10178;48.034;9.800;2022-07-03T01:00:21;3.92;;;1.00;;
20034;SDS011;10178;48.034;9.800;2022-07-03T01:05:34;0.75;;;0.75;;
20034;SDS011;10178;48.034;9.800;2022-07-03T01:08:11;0.80;;;0.80;;
20034;SDS011;10178;48.034;9.800;2022-07-03T01:16:59;0.90;;;0.85;;
20034;SDS011;10178;48.034;9.800;2022-07-03T01:19:31;1.67;;;1.00;;
20034;SDS011;10178;48.034;9.800;2022-07-03T01:30:24;1.20;;;0.90;;
20034;SDS011;10178;48.034;9.800;2022-07-03T01:33:02;0.98;;;0.90;;
20034;SDS011;10178;48.034;9.800;2022-07-03T01:35:35;1.15;;;1.00;;
20034;SDS011;10178;48.034;9.800;2022-07-03T01:38:07;3.05;;;0.98;;
20034;SDS011;10178;48.034;9.800;2022-07-03T01:40:38;0.80;;;0.80;;
20034;SDS011;10178;48.034;9.800;2022-07-03T01:43:06;1.95;;;0.80;;
20034;SDS011;10178;48.034;9.800;2022-07-03T01:45:35;1.10;;;1.00;;
20034;SDS011;10178;48.034;9.800;2022-07-03T01:48:04;0.88;;;0.88;;
20034;SDS011;10178;48.034;9.800;2022-07-03T01:50:31;0.90;;;0.90;;
20034;SDS011;10178;48.034;9.800;2022-07-03T01:52:58;2.00;;;1.13;;
20034;SDS011;10178;48.034;9.800;2022-07-03T01:55:28;1.20;;;1.10;;
20034;SDS011;10178;48.034;9.800;2022-07-03T01:57:56;1.55;;;0.90;;
20034;SDS011;10178;48.034;9.800;2022-07-03T02:00:22;2.25;;;0.98;;
20034;SDS011;10178;48.034;9.800;2022-07-03T02:03:02;0.93;;;0.90;;
20034;SDS011;10178;48.034;9.800;2022-07-03T02:05:38;1.10;;;1.00;;
20034;SDS011;10178;48.034;9.800;2022-07-03T02:16:23;0.80;;;0.80;;
20034;SDS011;10178;48.034;9.800;2022-07-03T02:19:02;2.03;;;0.88;;
20034;SDS011;10178;48.034;9.800;2022-07-03T02:21:30;1.00;;;1.00;;
20034;SDS011;10178;48.034;9.800;2022-07-03T02:26:52;1.50;;;0.82;;
20034;SDS011;10178;48.034;9.800;2022-07-03T02:29:35;1.58;;;1.10;;
20034;SDS011;10178;48.034;9.800;2022-07-03T02:32:06;0.90;;;0.90;;
20034;SDS011;10178;48.034;9.800;2022-07-03T02:34:38;2.00;;;1.10;;
20034;SDS011;10178;48.034;9.800;2022-07-03T02:37:12;1.40;;;1.00;;
20034;SDS011;10178;48.034;9.800;2022-07-03T02:39:52;1.23;;;1.10;;
20034;SDS011;10178;48.034;9.800;2022-07-03T02:42:27;2.05;;;1.00;;
20034;SDS011;10178;48.034;9.800;2022-07-03T02:44:53;0.98;;;0.98;;
20034;SDS011;10178;48.034;9.800;2022-07-03T02:57:41;1.42;;;1.33;;
20034;SDS011;10178;48.034;9.800;2022-07-03T03:00:08;1.58;;;0.88;;
20034;SDS011;10178;48.034;9.800;2022-07-03T03:02:52;2.88;;;1.00;;
20034;SDS011;10178;48.034;9.800;2022-07-03T03:10:35;2.00;;;1.20;;
20034;SDS011;10178;48.034;9.800;2022-07-03T03:13:06;2.47;;;1.08;;
20034;SDS011;10178;48.034;9.800;2022-07-03T03:15:34;1.00;;;1.00;;
20034;SDS011;10178;48.034;9.800;2022-07-03T03:18:02;1.17;;;1.08;;
20034;SDS011;10178;48.034;9.800;2022-07-03T03:20:31;1.75;;;0.90;;
20034;SDS011;10178;48.034;9.800;2022-07-03T03:23:13;2.25;;;1.10;;
20034;SDS011;10178;48.034;9.800;2022-07-03T03:25:57;1.13;;;1.02;;
20034;SDS011;10178;48.034;9.800;2022-07-03T03:28:24;1.10;;;1.00;;
20034;SDS011;10178;48.034;9.800;2022-07-03T03:30:50;2.42;;;1.10;;
20034;SDS011;10178;48.034;9.800;2022-07-03T03:33:16;7.47;;;1.20;;
20034;SDS011;10178;48.034;9.800;2022-07-03T03:35:43;2.70;;;1.00;;
20034;SDS011;10178;48.034;9.800;2022-07-03T03:38:09;1.17;;;1.10;;
20034;SDS011;10178;48.034;9.800;2022-07-03T03:40:36;1.15;;;0.95;;
20034;SDS011;10178;48.034;9.800;2022-07-03T03:43:02;1.83;;;0.90;;
20034;SDS011;10178;48.034;9.800;2022-07-03T03:45:28;1.40;;;1.30;;
20034;SDS011;10178;48.034;9.800;2022-07-03T03:47:54;1.85;;;1.08;;
20034;SDS011;10178;48.034;9.800;2022-07-03T03:50:20;3.17;;;1.33;;
20034;SDS011;10178;48.034;9.800;2022-07-03T03:52:46;1.48;;;1.20;;
20034;SDS011;10178;48.034;9.800;2022-07-03T03:55:12;3.45;;;1.88;;
20034;SDS011;10178;48.034;9.800;2022-07-03T03:57:38;1.42;;;1.20;;
20034;SDS011;10178;48.034;9.800;2022-07-03T04:00:04;1.50;;;1.15;;
20034;SDS011;10178;48.034;9.800;2022-07-03T04:02:30;3.05;;;1.90;;
20034;SDS011;10178;48.034;9.800;2022-07-03T04:04:56;3.33;;;1.63;;
20034;SDS011;10178;48.034;9.800;2022-07-03T04:07:22;2.72;;;1.75;;
20034;SDS011;10178;48.034;9.800;2022-07-03T04:09:48;2.85;;;1.42;;
20034;SDS011;10178;48.034;9.800;2022-07-03T04:12:13;1.58;;;1.00;;
20034;SDS011;10178;48.034;9.800;2022-07-03T04:14:39;1.13;;;1.10;;
20034;SDS011;10178;48.034;9.800;2022-07-03T04:17:05;2.10;;;1.00;;
20034;SDS011;10178;48.034;9.800;2022-07-03T04:19:31;3.95;;;1.00;;
20034;SDS011;10178;48.034;9.800;2022-07-03T04:21:57;4.15;;;2.45;;
20034;SDS011;10178;48.034;9.800;2022-07-03T04:24:22;1.00;;;1.00;;
20034;SDS011;10178;48.034;9.800;2022-07-03T04:26:48;2.70;;;1.15;;
20034;SDS011;10178;48.034;9.800;2022-07-03T04:29:14;2.67;;;2.47;;
20034;SDS011;10178;48.034;9.800;2022-07-03T04:31:40;4.75;;;2.78;;
20034;SDS011;10178;48.034;9.800;2022-07-03T04:34:06;3.83;;;3.22;;
20034;SDS011;10178;48.034;9.800;2022-07-03T04:36:32;9.00;;;3.55;;
20034;SDS011;10178;48.034;9.800;2022-07-03T04:38:58;5.28;;;3.60;;
20034;SDS011;10178;48.034;9.800;2022-07-03T04:41:23;7.78;;;4.00;;
20034;SDS011;10178;48.034;9.800;2022-07-03T04:43:49;6.65;;;4.90;;
20034;SDS011;10178;48.034;9.800;2022-07-03T04:46:14;7.85;;;4.40;;
20034;SDS011;10178;48.034;9.800;2022-07-03T04:48:40;5.85;;;5.03;;
20034;SDS011;10178;48.034;9.800;2022-07-03T04:51:06;5.43;;;4.93;;
20034;SDS011;10178;48.034;9.800;2022-07-03T04:53:31;5.05;;;4.55;;
20034;SDS011;10178;48.034;9.800;2022-07-03T04:55:57;5.95;;;4.47;;
20034;SDS011;10178;48.034;9.800;2022-07-03T04:58:23;4.90;;;2.85;;
20034;SDS011;10178;48.034;9.800;2022-07-03T05:00:48;1.55;;;1.33;;
20034;SDS011;10178;48.034;9.800;2022-07-03T05:03:14;2.00;;;1.33;;
20034;SDS011;10178;48.034;9.800;2022-07-03T05:05:40;1.70;;;1.60;;
20034;SDS011;10178;48.034;9.800;2022-07-03T05:08:05;2.33;;;1.45;;
20034;SDS011;10178;48.034;9.800;2022-07-03T05:10:32;2.60;;;1.30;;
20034;SDS011;10178;48.034;9.800;2022-07-03T05:12:57;5.32;;;1.30;;
20034;SDS011;10178;48.034;9.800;2022-07-03T05:15:23;2.25;;;1.80;;
20034;SDS011;10178;48.034;9.800;2022-07-03T05:17:49;2.30;;;1.52;;
20034;SDS011;10178;48.034;9.800;2022-07-03T05:20:15;4.55;;;2.90;;
20034;SDS011;10178;48.034;9.800;2022-07-03T05:22:53;2.65;;;2.45;;
20034;SDS011;10178;48.034;9.800;2022-07-03T05:25:20;4.50;;;2.17;;
20034;SDS011;10178;48.034;9.800;2022-07-03T05:27:46;1.92;;;1.83;;
20034;SDS011;10178;48.034;9.800;2022-07-03T05:30:12;2.88;;;1.45;;
20034;SDS011;10178;48.034;9.800;2022-07-03T05:32:38;4.85;;;1.52;;
20034;SDS011;10178;48.034;9.800;2022-07-03T05:35:04;2.33;;;1.48;;
20034;SDS011;10178;48.034;9.800;2022-07-03T05:37:30;4.60;;;1.60;;
20034;SDS011;10178;48.034;9.800;2022-07-03T05:39:56;2.15;;;2.03;;
20034;SDS011;10178;48.034;9.800;2022-07-03T05:42:22;1.30;;;1.30;;
20034;SDS011;10178;48.034;9.800;2022-07-03T05:44:48;1.50;;;1.40;;
20034;SDS011;10178;48.034;9.800;2022-07-03T05:47:13;1.95;;;1.25;;
20034;SDS011;10178;48.034;9.800;2022-07-03T05:49:39;1.48;;;1.38;;
20034;SDS011;10178;48.034;9.800;2022-07-03T05:52:05;1.52;;;1.42;;
20034;SDS011;10178;48.034;9.800;2022-07-03T05:54:31;1.40;;;1.30;;
20034;SDS011;10178;48.034;9.800;2022-07-03T05:56:56;5.07;;;1.45;;
20034;SDS011;10178;48.034;9.800;2022-07-03T05:59:22;1.55;;;1.40;;
20034;SDS011;10178;48.034;9.800;2022-07-03T06:01:47;1.40;;;1.30;;
20034;SDS011;10178;48.034;9.800;2022-07-03T06:04:13;2.35;;;2.17;;
20034;SDS011;10178;48.034;9.800;2022-07-03T06:06:39;1.45;;;1.10;;
20034;SDS011;10178;48.034;9.800;2022-07-03T06:09:05;1.60;;;1.50;;
20034;SDS011;10178;48.034;9.800;2022-07-03T06:11:31;1.83;;;1.23;;
20034;SDS011;10178;48.034;9.800;2022-07-03T06:13:57;1.67;;;1.50;;
20034;SDS011;10178;48.034;9.800;2022-07-03T06:16:22;1.48;;;1.38;;
20034;SDS011;10178;48.034;9.800;2022-07-03T06:18:48;5.03;;;1.73;;
20034;SDS011;10178;48.034;9.800;2022-07-03T06:21:14;2.13;;;1.40;;
20034;SDS011;10178;48.034;9.800;2022-07-03T06:23:40;1.85;;;1.75;;
20034;SDS011;10178;48.034;9.800;2022-07-03T06:26:06;2.53;;;1.50;;
20034;SDS011;10178;48.034;9.800;2022-07-03T06:28:31;1.17;;;1.10;;
20034;SDS011;10178;48.034;9.800;2022-07-03T06:30:57;1.27;;;1.20;;
20034;SDS011;10178;48.034;9.800;2022-07-03T06:33:23;2.22;;;1.55;;
20034;SDS011;10178;48.034;9.800;2022-07-03T06:35:48;2.40;;;2.20;;
20034;SDS011;10178;48.034;9.800;2022-07-03T06:38:14;2.40;;;2.20;;
20034;SDS011;10178;48.034;9.800;2022-07-03T06:40:40;1.60;;;1.50;;
20034;SDS011;10178;48.034;9.800;2022-07-03T06:43:06;3.33;;;1.20;;
20034;SDS011;10178;48.034;9.800;2022-07-03T06:45:31;3.53;;;2.13;;
20034;SDS011;10178;48.034;9.800;2022-07-03T06:47:57;4.78;;;2.50;;
20034;SDS011;10178;48.034;9.800;2022-07-03T06:50:23;1.73;;;1.50;;
20034;SDS011;10178;48.034;9.800;2022-07-03T06:52:49;1.58;;;1.48;;
20034;SDS011;10178;48.034;9.800;2022-07-03T06:55:14;2.95;;;1.40;;
20034;SDS011;10178;48.034;9.800;2022-07-03T06:57:40;2.53;;;1.67;;
20034;SDS011;10178;48.034;9.800;2022-07-03T07:00:06;1.65;;;1.50;;
20034;SDS011;10178;48.034;9.800;2022-07-03T07:02:32;3.45;;;1.98;;
20034;SDS011;10178;48.034;9.800;2022-07-03T07:04:58;2.35;;;1.40;;
20034;SDS011;10178;48.034;9.800;2022-07-03T07:07:23;5.18;;;1.65;;
20034;SDS011;10178;48.034;9.800;2022-07-03T07:09:49;2.70;;;1.95;;
20034;SDS011;10178;48.034;9.800;2022-07-03T07:12:15;1.85;;;1.60;;
20034;SDS011;10178;48.034;9.800;2022-07-03T07:14:41;2.50;;;1.63;;
20034;SDS011;10178;48.034;9.800;2022-07-03T07:17:07;1.73;;;1.40;;
20034;SDS011;10178;48.034;9.800;2022-07-03T07:19:33;1.65;;;1.55;;
20034;SDS011;10178;48.034;9.800;2022-07-03T07:21:59;2.00;;;1.90;;
20034;SDS011;10178;48.034;9.800;2022-07-03T07:24:26;1.50;;;1.40;;
20034;SDS011;10178;48.034;9.800;2022-07-03T07:26:52;1.48;;;1.30;;
20034;SDS011;10178;48.034;9.800;2022-07-03T07:29:19;1.73;;;1.50;;
20034;SDS011;10178;48.034;9.800;2022-07-03T07:31:44;2.50;;;1.70;;
20034;SDS011;10178;48.034;9.800;2022-07-03T07:34:10;1.90;;;1.63;;
20034;SDS011;10178;48.034;9.800;2022-07-03T07:36:36;1.83;;;1.42;;
20034;SDS011;10178;48.034;9.800;2022-07-03T07:39:02;2.05;;;1.60;;
20034;SDS011;10178;48.034;9.800;2022-07-03T07:41:28;1.75;;;1.52;;
20034;SDS011;10178;48.034;9.800;2022-07-03T07:43:54;1.50;;;1.20;;
20034;SDS011;10178;48.034;9.800;2022-07-03T07:46:19;1.27;;;1.17;;
20034;SDS011;10178;48.034;9.800;2022-07-03T07:48:45;1.30;;;1.25;;
20034;SDS011;10178;48.034;9.800;2022-07-03T07:51:11;1.30;;;1.20;;
20034;SDS011;10178;48.034;9.800;2022-07-03T07:53:36;1.65;;;1.50;;
20034;SDS011;10178;48.034;9.800;2022-07-03T07:58:32;1.45;;;1.17;;
20034;SDS011;10178;48.034;9.800;2022-07-03T08:00:57;2.92;;;1.30;;
20034;SDS011;10178;48.034;9.800;2022-07-03T08:03:41;1.27;;;1.17;;
20034;SDS011;10178;48.034;9.800;2022-07-03T08:06:25;1.20;;;1.08;;
20034;SDS011;10178;48.034;9.800;2022-07-03T08:08:51;3.08;;;1.25;;
20034;SDS011;10178;48.034;9.800;2022-07-03T08:11:16;2.15;;;1.10;;
20034;SDS011;10178;48.034;9.800;2022-07-03T08:13:42;3.60;;;1.40;;
20034;SDS011;10178;48.034;9.800;2022-07-03T08:16:09;1.20;;;1.10;;
20034;SDS011;10178;48.034;9.800;2022-07-03T08:18:35;3.75;;;1.20;;
20034;SDS011;10178;48.034;9.800;2022-07-03T08:21:00;2.47;;;1.13;;
20034;SDS011;10178;48.034;9.800;2022-07-03T08:23:26;1.10;;;1.00;;
20034;SDS011;10178;48.034;9.800;2022-07-03T08:25:51;1.80;;;1.38;;
20034;SDS011;10178;48.034;9.800;2022-07-03T08:28:17;1.42;;;1.30;;
20034;SDS011;10178;48.034;9.800;2022-07-03T08:30:43;4.13;;;3.83;;
20034;SDS011;10178;48.034;9.800;2022-07-03T08:33:10;1.40;;;1.30;;
20034;SDS011;10178;48.034;9.800;2022-07-03T08:35:35;1.50;;;1.40;;
20034;SDS011;10178;48.034;9.800;2022-07-03T08:38:01;1.52;;;0.95;;
20034;SDS011;10178;48.034;9.800;2022-07-03T08:40:26;1.40;;;1.30;;
20034;SDS011;10178;48.034;9.800;2022-07-03T08:42:54;2.60;;;1.40;;
20034;SDS011;10178;48.034;9.800;2022-07-03T08:45:22;1.20;;;1.10;;
20034;SDS011;10178;48.034;9.800;2022-07-03T08:47:49;1.80;;;1.02;;
20034;SDS011;10178;48.034;9.800;2022-07-03T08:50:17;1.15;;;1.05;;
20034;SDS011;10178;48.034;9.800;2022-07-03T08:52:43;1.63;;;1.45;;
20034;SDS011;10178;48.034;9.800;2022-07-03T08:55:10;1.15;;;1.15;;
20034;SDS011;10178;48.034;9.800;2022-07-03T08:57:38;2.95;;;1.20;;
20034;SDS011;10178;48.034;9.800;2022-07-03T09:00:09;3.15;;;1.00;;
20034;SDS011;10178;48.034;9.800;2022-07-03T09:02:38;2.63;;;0.95;;
20034;SDS011;10178;48.034;9.800;2022-07-03T09:05:06;1.10;;;1.00;;
20034;SDS011;10178;48.034;9.800;2022-07-03T09:07:37;1.40;;;1.20;;
20034;SDS011;10178;48.034;9.800;2022-07-03T09:10:04;0.82;;;0.82;;
20034;SDS011;10178;48.034;9.800;2022-07-03T09:12:32;2.45;;;1.13;;
20034;SDS011;10178;48.034;9.800;2022-07-03T09:15:01;1.45;;;1.20;;
20034;SDS011;10178;48.034;9.800;2022-07-03T09:17:29;1.15;;;1.05;;
20034;SDS011;10178;48.034;9.800;2022-07-03T09:19:57;1.75;;;1.00;;
20034;SDS011;10178;48.034;9.800;2022-07-03T09:22:25;1.13;;;1.10;;
20034;SDS011;10178;48.034;9.800;2022-07-03T09:24:53;1.25;;;1.15;;
20034;SDS011;10178;48.034;9.800;2022-07-03T09:27:27;1.35;;;1.00;;
20034;SDS011;10178;48.034;9.800;2022-07-03T09:30:01;0.90;;;0.90;;
20034;SDS011;10178;48.034;9.800;2022-07-03T09:35:23;1.10;;;0.90;;
20034;SDS011;10178;48.034;9.800;2022-07-03T09:37:51;1.75;;;0.93;;
20034;SDS011;10178;48.034;9.800;2022-07-03T09:40:19;0.90;;;0.80;;
20034;SDS011;10178;48.034;9.800;2022-07-03T09:43:05;1.10;;;0.77;;
20034;SDS011;10178;48.034;9.800;2022-07-03T09:45:48;1.40;;;0.82;;
20034;SDS011;10178;48.034;9.800;2022-07-03T09:50:47;1.15;;;1.00;;
20034;SDS011;10178;48.034;9.800;2022-07-03T09:53:13;3.42;;;1.00;;
20034;SDS011;10178;48.034;9.800;2022-07-03T09:55:39;1.67;;;0.73;;
20034;SDS011;10178;48.034;9.800;2022-07-03T09:58:05;1.85;;;1.00;;
20034;SDS011;10178;48.034;9.800;2022-07-03T10:00:31;1.25;;;0.90;;
20034;SDS011;10178;48.034;9.800;2022-07-03T10:07:56;0.77;;;0.73;;
20034;SDS011;10178;48.034;9.800;2022-07-03T10:10:31;3.10;;;0.82;;
20034;SDS011;10178;48.034;9.800;2022-07-03T10:12:58;1.17;;;0.85;;
20034;SDS011;10178;48.034;9.800;2022-07-03T10:15:25;1.17;;;0.82;;
20034;SDS011;10178;48.034;9.800;2022-07-03T10:17:53;0.95;;;0.88;;
20034;SDS011;10178;48.034;9.800;2022-07-03T10:20:28;0.93;;;0.93;;
20034;SDS011;10178;48.034;9.800;2022-07-03T10:23:14;0.98;;;0.85;;
20034;SDS011;10178;48.034;9.800;2022-07-03T10:25:41;1.20;;;0.63;;
20034;SDS011;10178;48.034;9.800;2022-07-03T10:28:07;3.90;;;0.90;;
20034;SDS011;10178;48.034;9.800;2022-07-03T10:30:35;1.17;;;0.90;;
20034;SDS011;10178;48.034;9.800;2022-07-03T10:33:01;0.80;;;0.80;;
20034;SDS011;10178;48.034;9.800;2022-07-03T10:35:34;0.70;;;0.70;;
20034;SDS011;10178;48.034;9.800;2022-07-03T10:41:00;0.60;;;0.60;;
20034;SDS011;10178;48.034;9.800;2022-07-03T10:43:51;0.88;;;0.80;;
20034;SDS011;10178;48.034;9.800;2022-07-03T10:46:36;0.80;;;0.80;;
20034;SDS011;10178;48.034;9.800;2022-07-03T10:49:09;0.70;;;0.68;;
20034;SDS011;10178;48.034;9.800;2022-07-03T11:07:24;0.75;;;0.75;;
20034;SDS011;10178;48.034;9.800;2022-07-03T11:15:38;0.90;;;0.60;;
20034;SDS011;10178;48.034;9.800;2022-07-03T11:18:15;0.98;;;0.75;;
20034;SDS011;10178;48.034;9.800;2022-07-03T11:26:37;1.42;;;0.70;;
20034;SDS011;10178;48.034;9.800;2022-07-03T11:33:48;0.70;;;0.70;;
20034;SDS011;10178;48.034;9.800;2022-07-03T11:41:22;0.85;;;0.65;;
20034;SDS011;10178;48.034;9.800;2022-07-03T11:43:50;0.60;;;0.60;;
20034;SDS011;10178;48.034;9.800;2022-07-03T11:46:18;0.57;;;0.57;;
20034;SDS011;10178;48.034;9.800;2022-07-03T11:48:44;1.08;;;0.73;;
20034;SDS011;10178;48.034;9.800;2022-07-03T11:51:10;2.88;;;0.80;;
20034;SDS011;10178;48.034;9.800;2022-07-03T11:53:36;3.38;;;0.57;;
20034;SDS011;10178;48.034;9.800;2022-07-03T11:56:10;0.90;;;0.70;;
20034;SDS011;10178;48.034;9.800;2022-07-03T11:58:47;1.40;;;0.60;;
20034;SDS011;10178;48.034;9.800;2022-07-03T12:06:38;1.48;;;0.75;;
20034;SDS011;10178;48.034;9.800;2022-07-03T12:09:14;1.45;;;0.80;;
20034;SDS011;10178;48.034;9.800;2022-07-03T12:17:03;0.60;;;0.60;;
20034;SDS011;10178;48.034;9.800;2022-07-03T12:19:30;1.40;;;0.90;;
20034;SDS011;10178;48.034;9.800;2022-07-03T12:21:56;0.60;;;0.60;;
20034;SDS011;10178;48.034;9.800;2022-07-03T12:24:22;0.77;;;0.77;;
20034;SDS011;10178;48.034;9.800;2022-07-03T12:26:54;1.48;;;0.60;;
20034;SDS011;10178;48.034;9.800;2022-07-03T12:29:19;1.13;;;0.90;;
20034;SDS011;10178;48.034;9.800;2022-07-03T12:31:46;0.68;;;0.68;;
20034;SDS011;10178;48.034;9.800;2022-07-03T12:34:14;1.20;;;0.65;;
20034;SDS011;10178;48.034;9.800;2022-07-03T12:36:41;0.80;;;0.70;;
20034;SDS011;10178;48.034;9.800;2022-07-03T12:39:40;0.85;;;0.80;;
20034;SDS011;10178;48.034;9.800;2022-07-03T12:42:13;1.30;;;1.20;;
20034;SDS011;10178;48.034;9.800;2022-07-03T12:44:39;4.40;;;0.80;;
20034;SDS011;10178;48.034;9.800;2022-07-03T12:47:05;5.18;;;0.90;;
20034;SDS011;10178;48.034;9.800;2022-07-03T12:49:30;2.20;;;0.98;;
20034;SDS011;10178;48.034;9.800;2022-07-03T12:51:57;1.15;;;0.90;;
20034;SDS011;10178;48.034;9.800;2022-07-03T12:54:35;0.90;;;0.90;;
20034;SDS011;10178;48.034;9.800;2022-07-03T12:57:08;2.35;;;1.10;;
20034;SDS011;10178;48.034;9.800;2022-07-03T13:00:13;2.92;;;1.10;;
20034;SDS011;10178;48.034;9.800;2022-07-03T13:02:45;1.38;;;0.90;;
20034;SDS011;10178;48.034;9.800;2022-07-03T13:05:16;8.57;;;0.88;;
20034;SDS011;10178;48.034;9.800;2022-07-03T13:07:42;0.80;;;0.80;;
20034;SDS011;10178;48.034;9.800;2022-07-03T13:10:09;2.25;;;0.90;;
20034;SDS011;10178;48.034;9.800;2022-07-03T13:12:44;2.28;;;0.82;;
20034;SDS011;10178;48.034;9.800;2022-07-03T13:15:18;1.40;;;0.80;;
20034;SDS011;10178;48.034;9.800;2022-07-03T13:20:20;1.38;;;0.80;;
20034;SDS011;10178;48.034;9.800;2022-07-03T13:22:53;2.42;;;0.90;;
20034;SDS011;10178;48.034;9.800;2022-07-03T13:25:22;1.05;;;0.95;;
20034;SDS011;10178;48.034;9.800;2022-07-03T13:27:48;4.25;;;0.80;;
20034;SDS011;10178;48.034;9.800;2022-07-03T13:30:14;1.52;;;0.82;;
20034;SDS011;10178;48.034;9.800;2022-07-03T13:32:42;0.80;;;0.80;;
20034;SDS011;10178;48.034;9.800;2022-07-03T13:35:08;1.23;;;0.80;;
20034;SDS011;10178;48.034;9.800;2022-07-03T13:37:35;1.25;;;0.90;;
20034;SDS011;10178;48.034;9.800;2022-07-03T13:40:01;0.70;;;0.70;;
20034;SDS011;10178;48.034;9.800;2022-07-03T13:42:28;5.15;;;1.30;;
20034;SDS011;10178;48.034;9.800;2022-07-03T13:44:54;0.98;;;0.80;;
20034;SDS011;10178;48.034;9.800;2022-07-03T13:47:20;1.67;;;0.77;;
20034;SDS011;10178;48.034;9.800;2022-07-03T13:49:46;1.45;;;0.70;;
20034;SDS011;10178;48.034;9.800;2022-07-03T13:52:12;3.03;;;0.75;;
20034;SDS011;10178;48.034;9.800;2022-07-03T13:54:37;2.72;;;0.88;;
20034;SDS011;10178;48.034;9.800;2022-07-03T13:57:03;7.38;;;1.00;;
20034;SDS011;10178;48.034;9.800;2022-07-03T13:59:29;2.25;;;1.02;;
20034;SDS011;10178;48.034;9.800;2022-07-03T14:01:56;0.80;;;0.80;;
20034;SDS011;10178;48.034;9.800;2022-07-03T14:04:22;3.45;;;0.85;;
20034;SDS011;10178;48.034;9.800;2022-07-03T14:06:47;3.70;;;0.95;;
20034;SDS011;10178;48.034;9.800;2022-07-03T14:09:13;1.90;;;0.90;;
20034;SDS011;10178;48.034;9.800;2022-07-03T14:11:40;3.65;;;1.00;;
20034;SDS011;10178;48.034;9.800;2022-07-03T14:14:05;1.23;;;0.90;;
20034;SDS011;10178;48.034;9.800;2022-07-03T14:16:31;3.05;;;0.93;;
20034;SDS011;10178;48.034;9.800;2022-07-03T14:18:57;2.00;;;0.93;;
20034;SDS011;10178;48.034;9.800;2022-07-03T14:21:23;1.05;;;0.85;;
20034;SDS011;10178;48.034;9.800;2022-07-03T14:23:49;3.33;;;0.80;;
20034;SDS011;10178;48.034;9.800;2022-07-03T14:26:15;1.20;;;1.10;;
20034;SDS011;10178;48.034;9.800;2022-07-03T14:29:00;1.73;;;1.10;;
20034;SDS011;10178;48.034;9.800;2022-07-03T14:31:44;0.90;;;0.85;;
20034;SDS011;10178;48.034;9.800;2022-07-03T14:34:42;0.93;;;0.90;;
20034;SDS011;10178;48.034;9.800;2022-07-03T14:37:08;1.40;;;0.90;;
20034;SDS011;10178;48.034;9.800;2022-07-03T14:39:34;1.17;;;0.90;;
20034;SDS011;10178;48.034;9.800;2022-07-03T14:42:00;0.95;;;0.70;;
20034;SDS011;10178;48.034;9.800;2022-07-03T14:44:27;1.45;;;0.80;;
20034;SDS011;10178;48.034;9.800;2022-07-03T14:46:54;2.22;;;0.95;;
20034;SDS011;10178;48.034;9.800;2022-07-03T14:49:20;1.20;;;1.00;;
20034;SDS011;10178;48.034;9.800;2022-07-03T14:51:46;4.82;;;0.90;;
20034;SDS011;10178;48.034;9.800;2022-07-03T14:54:17;1.33;;;1.00;;
20034;SDS011;10178;48.034;9.800;2022-07-03T14:56:47;1.15;;;0.90;;
20034;SDS011;10178;48.034;9.800;2022-07-03T14:59:20;1.10;;;1.00;;
20034;SDS011;10178;48.034;9.800;2022-07-03T15:01:59;3.13;;;0.90;;
20034;SDS011;10178;48.034;9.800;2022-07-03T15:07:01;2.95;;;1.00;;
20034;SDS011;10178;48.034;9.800;2022-07-03T15:09:29;0.90;;;0.90;;
20034;SDS011;10178;48.034;9.800;2022-07-03T15:12:02;1.05;;;0.80;;
20034;SDS011;10178;48.034;9.800;2022-07-03T15:14:49;2.55;;;1.00;;
20034;SDS011;10178;48.034;9.800;2022-07-03T15:17:18;2.08;;;0.90;;
20034;SDS011;10178;48.034;9.800;2022-07-03T15:19:45;1.10;;;0.98;;
20034;SDS011;10178;48.034;9.800;2022-07-03T15:22:13;0.82;;;0.82;;
20034;SDS011;10178;48.034;9.800;2022-07-03T15:24:42;0.85;;;0.85;;
20034;SDS011;10178;48.034;9.800;2022-07-03T15:27:11;1.80;;;0.88;;
20034;SDS011;10178;48.034;9.800;2022-07-03T15:29:40;1.90;;;1.08;;
20034;SDS011;10178;48.034;9.800;2022-07-03T15:32:07;2.35;;;0.90;;
20034;SDS011;10178;48.034;9.800;2022-07-03T15:34:36;1.58;;;1.00;;
20034;SDS011;10178;48.034;9.800;2022-07-03T15:37:06;6.38;;;1.00;;
20034;SDS011;10178;48.034;9.800;2022-07-03T15:40:03;1.00;;;0.73;;
20034;SDS011;10178;48.034;9.800;2022-07-03T15:43:51;2.70;;;1.10;;
20034;SDS011;10178;48.034;9.800;2022-07-03T15:45:56;1.38;;;0.90;;
20034;SDS011;10178;48.034;9.800;2022-07-03T15:49:13;1.08;;;0.90;;
20034;SDS011;10178;48.034;9.800;2022-07-03T15:51:24;2.70;;;0.98;;
20034;SDS011;10178;48.034;9.800;2022-07-03T15:53:59;3.03;;;1.10;;
20034;SDS011;10178;48.034;9.800;2022-07-03T15:56:30;1.42;;;1.02;;
20034;SDS011;10178;48.034;9.800;2022-07-03T15:59:00;3.50;;;1.13;;
20034;SDS011;10178;48.034;9.800;2022-07-03T16:01:29;3.58;;;0.88;;
20034;SDS011;10178;48.034;9.800;2022-07-03T16:07:20;3.20;;;1.00;;
20034;SDS011;10178;48.034;9.800;2022-07-03T16:09:47;1.48;;;1.00;;
20034;SDS011;10178;48.034;9.800;2022-07-03T16:12:14;1.00;;;0.90;;
20034;SDS011;10178;48.034;9.800;2022-07-03T16:14:48;1.23;;;0.90;;
20034;SDS011;10178;48.034;9.800;2022-07-03T16:17:18;5.05;;;1.20;;
20034;SDS011;10178;48.034;9.800;2022-07-03T16:19:46;1.05;;;0.82;;
20034;SDS011;10178;48.034;9.800;2022-07-03T16:22:12;1.55;;;0.90;;
20034;SDS011;10178;48.034;9.800;2022-07-03T16:24:39;0.88;;;0.88;;
20034;SDS011;10178;48.034;9.800;2022-07-03T16:27:07;1.30;;;1.20;;
20034;SDS011;10178;48.034;9.800;2022-07-03T16:29:40;2.15;;;0.93;;
20034;SDS011;10178;48.034;9.800;2022-07-03T16:32:07;2.75;;;0.88;;
20034;SDS011;10178;48.034;9.800;2022-07-03T16:34:49;2.90;;;1.00;;
20034;SDS011;10178;48.034;9.800;2022-07-03T16:37:24;0.80;;;0.80;;
20034;SDS011;10178;48.034;9.800;2022-07-03T16:39:57;1.05;;;0.95;;
20034;SDS011;10178;48.034;9.800;2022-07-03T16:42:27;1.17;;;0.88;;
20034;SDS011;10178;48.034;9.800;2022-07-03T16:44:55;0.95;;;0.90;;
20034;SDS011;10178;48.034;9.800;2022-07-03T16:47:28;2.25;;;0.70;;
20034;SDS011;10178;48.034;9.800;2022-07-03T16:49:55;0.93;;;0.80;;
20034;SDS011;10178;48.034;9.800;2022-07-03T16:52:22;3.13;;;1.13;;
20034;SDS011;10178;48.034;9.800;2022-07-03T16:54:50;1.70;;;0.85;;